sensor_id;sensor_type;location;lat;lon;timestamp;P1;durP1;ratioP1;P2;durP2;ratioP2
55076;SDS011;40971;44.702;11.030;2022-08-03T00:01:16;4.88;;;1.45;;
55076;SDS011;40971;44.702;11.030;2022-08-03T00:03:43;10.68;;;1.90;;
55076;SDS011;40971;44.702;11.030;2022-08-03T00:06:08;10.63;;;1.42;;
55076;SDS011;40971;44.702;11.030;2022-08-03T00:08:34;10.05;;;1.70;;
55076;SDS011;40971;44.702;11.030;2022-08-03T00:10:59;6.65;;;2.10;;
55076;SDS011;40971;44.702;11.030;2022-08-03T00:13:25;7.60;;;1.70;;
55076;SDS011;40971;44.702;11.030;2022-08-03T00:15:51;8.32;;;1.63;;
55076;SDS011;40971;44.702;11.030;2022-08-03T00:18:16;9.85;;;1.65;;
55076;SDS011;40971;44.702;11.030;2022-08-03T00:20:43;9.60;;;1.60;;
55076;SDS011;40971;44.702;11.030;2022-08-03T00:23:09;5.00;;;1.70;;
55076;SDS011;40971;44.702;11.030;2022-08-03T00:25:35;4.93;;;1.50;;
55076;SDS011;40971;44.702;11.030;2022-08-03T00:28:01;6.50;;;2.30;;
55076;SDS011;40971;44.702;11.030;2022-08-03T00:30:28;9.10;;;2.28;;
55076;SDS011;40971;44.702;11.030;2022-08-03T00:32:53;10.38;;;1.98;;
55076;SDS011;40971;44.702;11.030;2022-08-03T00:35:19;6.80;;;2.00;;
55076;SDS011;40971;44.702;11.030;2022-08-03T00:37:44;6.53;;;2.60;;
55076;SDS011;40971;44.702;11.030;2022-08-03T00:40:11;9.32;;;2.80;;
55076;SDS011;40971;44.702;11.030;2022-08-03T00:42:47;6.43;;;2.88;;
55076;SDS011;40971;44.702;11.030;2022-08-03T00:45:18;6.18;;;2.75;;
55076;SDS011;40971;44.702;11.030;2022-08-03T00:47:48;7.82;;;3.08;;
55076;SDS011;40971;44.702;11.030;2022-08-03T00:50:14;9.07;;;3.00;;
55076;SDS011;40971;44.702;11.030;2022-08-03T00:52:41;9.23;;;2.78;;
55076;SDS011;40971;44.702;11.030;2022-08-03T00:55:07;12.05;;;2.47;;
55076;SDS011;40971;44.702;11.030;2022-08-03T00:57:33;7.45;;;2.30;;
55076;SDS011;40971;44.702;11.030;2022-08-03T00:59:59;9.98;;;2.95;;
55076;SDS011;40971;44.702;11.030;2022-08-03T01:02:25;7.95;;;2.75;;
55076;SDS011;40971;44.702;11.030;2022-08-03T01:04:52;10.18;;;3.25;;
55076;SDS011;40971;44.702;11.030;2022-08-03T01:07:24;7.15;;;2.40;;
55076;SDS011;40971;44.702;11.030;2022-08-03T01:10:01;3.97;;;1.42;;
55076;SDS011;40971;44.702;11.030;2022-08-03T01:12:37;10.68;;;1.90;;
55076;SDS011;40971;44.702;11.030;2022-08-03T01:15:19;35.08;;;5.00;;
55076;SDS011;40971;44.702;11.030;2022-08-03T01:21:20;6.47;;;2.00;;
55076;SDS011;40971;44.702;11.030;2022-08-03T01:24:06;12.40;;;3.33;;
55076;SDS011;40971;44.702;11.030;2022-08-03T01:27:02;7.05;;;2.42;;
55076;SDS011;40971;44.702;11.030;2022-08-03T01:32:40;5.45;;;2.22;;
55076;SDS011;40971;44.702;11.030;2022-08-03T01:35:16;5.25;;;2.15;;
55076;SDS011;40971;44.702;11.030;2022-08-03T01:37:50;10.13;;;1.90;;
55076;SDS011;40971;44.702;11.030;2022-08-03T01:40:19;11.43;;;2.20;;
55076;SDS011;40971;44.702;11.030;2022-08-03T01:42:48;6.00;;;2.10;;
55076;SDS011;40971;44.702;11.030;2022-08-03T01:45:15;11.52;;;2.50;;
55076;SDS011;40971;44.702;11.030;2022-08-03T01:47:44;14.13;;;2.45;;
55076;SDS011;40971;44.702;11.030;2022-08-03T01:50:12;11.63;;;2.60;;
55076;SDS011;40971;44.702;11.030;2022-08-03T01:52:39;11.57;;;2.10;;
55076;SDS011;40971;44.702;11.030;2022-08-03T01:55:07;6.05;;;2.50;;
55076;SDS011;40971;44.702;11.030;2022-08-03T01:57:34;6.57;;;2.55;;
55076;SDS011;40971;44.702;11.030;2022-08-03T02:00:03;8.02;;;2.58;;
55076;SDS011;40971;44.702;11.030;2022-08-03T02:02:30;6.32;;;2.50;;
55076;SDS011;40971;44.702;11.030;2022-08-03T02:04:57;7.20;;;2.53;;
55076;SDS011;40971;44.702;11.030;2022-08-03T02:07:25;7.45;;;2.75;;
55076;SDS011;40971;44.702;11.030;2022-08-03T02:09:51;9.05;;;2.60;;
55076;SDS011;40971;44.702;11.030;2022-08-03T02:12:18;5.95;;;2.92;;
55076;SDS011;40971;44.702;11.030;2022-08-03T02:14:45;11.23;;;3.63;;
55076;SDS011;40971;44.702;11.030;2022-08-03T02:17:12;7.35;;;3.35;;
55076;SDS011;40971;44.702;11.030;2022-08-03T02:19:39;7.10;;;3.20;;
55076;SDS011;40971;44.702;11.030;2022-08-03T02:22:07;8.18;;;3.13;;
55076;SDS011;40971;44.702;11.030;2022-08-03T02:24:35;13.27;;;3.10;;
55076;SDS011;40971;44.702;11.030;2022-08-03T02:27:00;5.70;;;3.05;;
55076;SDS011;40971;44.702;11.030;2022-08-03T02:29:31;11.60;;;3.22;;
55076;SDS011;40971;44.702;11.030;2022-08-03T02:31:59;9.13;;;3.28;;
55076;SDS011;40971;44.702;11.030;2022-08-03T02:34:28;14.50;;;3.38;;
55076;SDS011;40971;44.702;11.030;2022-08-03T02:36:57;9.82;;;3.08;;
55076;SDS011;40971;44.702;11.030;2022-08-03T02:39:28;6.85;;;2.92;;
55076;SDS011;40971;44.702;11.030;2022-08-03T02:41:57;10.45;;;2.92;;
55076;SDS011;40971;44.702;11.030;2022-08-03T02:44:28;6.38;;;3.00;;
55076;SDS011;40971;44.702;11.030;2022-08-03T02:47:06;5.97;;;2.90;;
55076;SDS011;40971;44.702;11.030;2022-08-03T02:49:33;7.32;;;3.60;;
55076;SDS011;40971;44.702;11.030;2022-08-03T02:52:01;15.57;;;3.10;;
55076;SDS011;40971;44.702;11.030;2022-08-03T02:54:28;12.45;;;3.38;;
55076;SDS011;40971;44.702;11.030;2022-08-03T02:56:56;9.93;;;3.50;;
55076;SDS011;40971;44.702;11.030;2022-08-03T02:59:22;13.48;;;3.42;;
55076;SDS011;40971;44.702;11.030;2022-08-03T03:01:50;7.30;;;3.45;;
55076;SDS011;40971;44.702;11.030;2022-08-03T03:04:17;7.57;;;4.15;;
55076;SDS011;40971;44.702;11.030;2022-08-03T03:06:44;11.15;;;3.33;;
55076;SDS011;40971;44.702;11.030;2022-08-03T03:09:09;9.55;;;3.38;;
55076;SDS011;40971;44.702;11.030;2022-08-03T03:11:37;12.85;;;3.50;;
55076;SDS011;40971;44.702;11.030;2022-08-03T03:14:03;7.63;;;3.63;;
55076;SDS011;40971;44.702;11.030;2022-08-03T03:16:29;12.90;;;4.35;;
55076;SDS011;40971;44.702;11.030;2022-08-03T03:18:56;11.50;;;4.70;;
55076;SDS011;40971;44.702;11.030;2022-08-03T03:21:23;11.18;;;3.67;;
55076;SDS011;40971;44.702;11.030;2022-08-03T03:23:50;10.73;;;3.60;;
55076;SDS011;40971;44.702;11.030;2022-08-03T03:26:17;10.15;;;3.38;;
55076;SDS011;40971;44.702;11.030;2022-08-03T03:28:43;10.13;;;4.18;;
55076;SDS011;40971;44.702;11.030;2022-08-03T03:31:09;8.20;;;3.33;;
55076;SDS011;40971;44.702;11.030;2022-08-03T03:33:35;11.82;;;4.57;;
55076;SDS011;40971;44.702;11.030;2022-08-03T03:36:02;9.13;;;4.15;;
55076;SDS011;40971;44.702;11.030;2022-08-03T03:38:29;8.82;;;3.92;;
55076;SDS011;40971;44.702;11.030;2022-08-03T03:40:54;7.07;;;3.90;;
55076;SDS011;40971;44.702;11.030;2022-08-03T03:43:21;11.90;;;5.13;;
55076;SDS011;40971;44.702;11.030;2022-08-03T03:45:47;10.23;;;4.13;;
55076;SDS011;40971;44.702;11.030;2022-08-03T03:48:13;11.50;;;4.40;;
55076;SDS011;40971;44.702;11.030;2022-08-03T03:50:40;14.13;;;5.38;;
55076;SDS011;40971;44.702;11.030;2022-08-03T03:53:09;11.20;;;4.43;;
55076;SDS011;40971;44.702;11.030;2022-08-03T03:55:36;16.48;;;4.60;;
55076;SDS011;40971;44.702;11.030;2022-08-03T03:58:02;13.75;;;4.57;;
55076;SDS011;40971;44.702;11.030;2022-08-03T04:00:28;23.40;;;3.85;;
55076;SDS011;40971;44.702;11.030;2022-08-03T04:02:54;12.20;;;3.30;;
55076;SDS011;40971;44.702;11.030;2022-08-03T04:05:20;14.23;;;3.70;;
55076;SDS011;40971;44.702;11.030;2022-08-03T04:08:05;14.65;;;3.50;;
55076;SDS011;40971;44.702;11.030;2022-08-03T04:11:35;22.55;;;4.75;;
55076;SDS011;40971;44.702;11.030;2022-08-03T04:16:25;9.20;;;3.30;;
55076;SDS011;40971;44.702;11.030;2022-08-03T04:18:56;14.00;;;4.10;;
55076;SDS011;40971;44.702;11.030;2022-08-03T04:21:26;27.25;;;4.55;;
55076;SDS011;40971;44.702;11.030;2022-08-03T04:23:54;10.23;;;4.78;;
55076;SDS011;40971;44.702;11.030;2022-08-03T04:26:24;65.85;;;4.95;;
55076;SDS011;40971;44.702;11.030;2022-08-03T04:28:52;12.40;;;3.28;;
55076;SDS011;40971;44.702;11.030;2022-08-03T04:31:22;20.42;;;3.38;;
55076;SDS011;40971;44.702;11.030;2022-08-03T04:33:49;14.68;;;3.38;;
55076;SDS011;40971;44.702;11.030;2022-08-03T04:36:18;8.55;;;3.45;;
55076;SDS011;40971;44.702;11.030;2022-08-03T04:38:53;8.85;;;3.75;;
55076;SDS011;40971;44.702;11.030;2022-08-03T04:41:24;17.83;;;4.53;;
55076;SDS011;40971;44.702;11.030;2022-08-03T04:43:52;11.85;;;5.40;;
55076;SDS011;40971;44.702;11.030;2022-08-03T04:46:20;10.95;;;4.78;;
55076;SDS011;40971;44.702;11.030;2022-08-03T04:48:48;11.13;;;4.40;;
55076;SDS011;40971;44.702;11.030;2022-08-03T04:51:14;18.30;;;5.15;;
55076;SDS011;40971;44.702;11.030;2022-08-03T04:53:41;10.68;;;4.43;;
55076;SDS011;40971;44.702;11.030;2022-08-03T04:56:07;11.70;;;4.50;;
55076;SDS011;40971;44.702;11.030;2022-08-03T04:58:32;12.80;;;4.50;;
55076;SDS011;40971;44.702;11.030;2022-08-03T05:00:58;41.22;;;6.93;;
55076;SDS011;40971;44.702;11.030;2022-08-03T05:03:23;9.32;;;4.90;;
55076;SDS011;40971;44.702;11.030;2022-08-03T05:05:50;11.35;;;5.88;;
55076;SDS011;40971;44.702;11.030;2022-08-03T05:08:16;11.10;;;4.85;;
55076;SDS011;40971;44.702;11.030;2022-08-03T05:10:41;13.07;;;4.72;;
55076;SDS011;40971;44.702;11.030;2022-08-03T05:13:07;12.70;;;4.18;;
55076;SDS011;40971;44.702;11.030;2022-08-03T05:15:36;9.35;;;4.70;;
55076;SDS011;40971;44.702;11.030;2022-08-03T05:18:01;13.15;;;5.60;;
55076;SDS011;40971;44.702;11.030;2022-08-03T05:20:27;17.40;;;6.95;;
55076;SDS011;40971;44.702;11.030;2022-08-03T05:22:52;13.18;;;8.00;;
55076;SDS011;40971;44.702;11.030;2022-08-03T05:25:18;13.73;;;7.93;;
55076;SDS011;40971;44.702;11.030;2022-08-03T05:27:43;17.83;;;8.93;;
55076;SDS011;40971;44.702;11.030;2022-08-03T05:30:09;14.07;;;8.65;;
55076;SDS011;40971;44.702;11.030;2022-08-03T05:32:34;37.47;;;8.98;;
55076;SDS011;40971;44.702;11.030;2022-08-03T05:35:00;22.88;;;9.40;;
55076;SDS011;40971;44.702;11.030;2022-08-03T05:37:25;19.70;;;9.93;;
55076;SDS011;40971;44.702;11.030;2022-08-03T05:39:51;27.23;;;9.90;;
55076;SDS011;40971;44.702;11.030;2022-08-03T05:42:16;22.00;;;10.20;;
55076;SDS011;40971;44.702;11.030;2022-08-03T05:44:42;17.63;;;10.52;;
55076;SDS011;40971;44.702;11.030;2022-08-03T05:47:07;22.65;;;12.43;;
55076;SDS011;40971;44.702;11.030;2022-08-03T05:49:33;22.95;;;11.02;;
55076;SDS011;40971;44.702;11.030;2022-08-03T05:51:58;37.55;;;11.23;;
55076;SDS011;40971;44.702;11.030;2022-08-03T05:54:24;20.13;;;10.65;;
55076;SDS011;40971;44.702;11.030;2022-08-03T05:56:49;30.42;;;10.65;;
55076;SDS011;40971;44.702;11.030;2022-08-03T05:59:15;27.50;;;11.13;;
55076;SDS011;40971;44.702;11.030;2022-08-03T06:01:40;19.83;;;10.35;;
55076;SDS011;40971;44.702;11.030;2022-08-03T06:04:06;24.60;;;11.05;;
55076;SDS011;40971;44.702;11.030;2022-08-03T06:06:31;21.92;;;11.45;;
55076;SDS011;40971;44.702;11.030;2022-08-03T06:08:57;20.58;;;10.55;;
55076;SDS011;40971;44.702;11.030;2022-08-03T06:11:22;17.52;;;9.65;;
55076;SDS011;40971;44.702;11.030;2022-08-03T06:13:48;20.33;;;10.05;;
55076;SDS011;40971;44.702;11.030;2022-08-03T06:16:14;26.58;;;10.63;;
55076;SDS011;40971;44.702;11.030;2022-08-03T06:18:39;17.35;;;10.35;;
55076;SDS011;40971;44.702;11.030;2022-08-03T06:21:05;17.73;;;9.48;;
55076;SDS011;40971;44.702;11.030;2022-08-03T06:23:30;18.52;;;10.20;;
55076;SDS011;40971;44.702;11.030;2022-08-03T06:25:56;16.80;;;10.52;;
55076;SDS011;40971;44.702;11.030;2022-08-03T06:28:21;16.75;;;9.55;;
55076;SDS011;40971;44.702;11.030;2022-08-03T06:30:47;17.35;;;8.43;;
55076;SDS011;40971;44.702;11.030;2022-08-03T06:33:12;24.95;;;10.00;;
55076;SDS011;40971;44.702;11.030;2022-08-03T06:35:38;15.63;;;9.45;;
55076;SDS011;40971;44.702;11.030;2022-08-03T06:38:03;16.25;;;8.63;;
55076;SDS011;40971;44.702;11.030;2022-08-03T06:40:29;14.80;;;8.38;;
55076;SDS011;40971;44.702;11.030;2022-08-03T06:42:58;23.95;;;8.48;;
55076;SDS011;40971;44.702;11.030;2022-08-03T06:45:25;15.05;;;8.15;;
55076;SDS011;40971;44.702;11.030;2022-08-03T06:48:05;11.77;;;6.75;;
55076;SDS011;40971;44.702;11.030;2022-08-03T06:50:32;13.65;;;6.68;;
55076;SDS011;40971;44.702;11.030;2022-08-03T06:52:59;13.32;;;6.57;;
55076;SDS011;40971;44.702;11.030;2022-08-03T06:55:26;15.95;;;6.38;;
55076;SDS011;40971;44.702;11.030;2022-08-03T06:57:52;11.68;;;4.97;;
55076;SDS011;40971;44.702;11.030;2022-08-03T07:00:17;11.10;;;5.50;;
55076;SDS011;40971;44.702;11.030;2022-08-03T07:02:43;12.30;;;5.63;;
55076;SDS011;40971;44.702;11.030;2022-08-03T07:05:09;11.13;;;5.22;;
55076;SDS011;40971;44.702;11.030;2022-08-03T07:07:35;23.98;;;5.60;;
55076;SDS011;40971;44.702;11.030;2022-08-03T07:10:02;14.55;;;4.60;;
55076;SDS011;40971;44.702;11.030;2022-08-03T07:12:29;9.77;;;4.90;;
55076;SDS011;40971;44.702;11.030;2022-08-03T07:14:55;8.48;;;4.72;;
55076;SDS011;40971;44.702;11.030;2022-08-03T07:17:21;9.85;;;4.13;;
55076;SDS011;40971;44.702;11.030;2022-08-03T07:19:47;9.85;;;3.72;;
55076;SDS011;40971;44.702;11.030;2022-08-03T07:22:13;9.52;;;4.00;;
55076;SDS011;40971;44.702;11.030;2022-08-03T07:24:38;11.43;;;4.30;;
55076;SDS011;40971;44.702;11.030;2022-08-03T07:27:05;20.42;;;3.55;;
55076;SDS011;40971;44.702;11.030;2022-08-03T07:29:32;18.90;;;3.47;;
55076;SDS011;40971;44.702;11.030;2022-08-03T07:31:58;11.18;;;3.85;;
55076;SDS011;40971;44.702;11.030;2022-08-03T07:34:24;10.65;;;3.30;;
55076;SDS011;40971;44.702;11.030;2022-08-03T07:36:49;6.70;;;2.70;;
55076;SDS011;40971;44.702;11.030;2022-08-03T07:39:15;10.05;;;2.30;;
55076;SDS011;40971;44.702;11.030;2022-08-03T07:41:40;9.98;;;2.40;;
55076;SDS011;40971;44.702;11.030;2022-08-03T07:44:06;8.43;;;2.85;;
55076;SDS011;40971;44.702;11.030;2022-08-03T07:46:31;8.00;;;2.40;;
55076;SDS011;40971;44.702;11.030;2022-08-03T07:48:57;9.82;;;2.80;;
55076;SDS011;40971;44.702;11.030;2022-08-03T07:51:23;11.30;;;2.22;;
55076;SDS011;40971;44.702;11.030;2022-08-03T07:53:48;6.03;;;2.00;;
55076;SDS011;40971;44.702;11.030;2022-08-03T07:56:13;11.38;;;2.33;;
55076;SDS011;40971;44.702;11.030;2022-08-03T07:58:40;5.68;;;1.63;;
55076;SDS011;40971;44.702;11.030;2022-08-03T08:01:06;7.50;;;1.70;;
55076;SDS011;40971;44.702;11.030;2022-08-03T08:03:32;5.40;;;1.70;;
55076;SDS011;40971;44.702;11.030;2022-08-03T08:05:57;5.50;;;1.65;;
55076;SDS011;40971;44.702;11.030;2022-08-03T08:08:22;7.85;;;1.73;;
55076;SDS011;40971;44.702;11.030;2022-08-03T08:10:48;5.97;;;1.50;;
55076;SDS011;40971;44.702;11.030;2022-08-03T08:13:13;9.00;;;2.30;;
55076;SDS011;40971;44.702;11.030;2022-08-03T08:15:39;6.43;;;2.03;;
55076;SDS011;40971;44.702;11.030;2022-08-03T08:18:04;6.78;;;2.15;;
55076;SDS011;40971;44.702;11.030;2022-08-03T08:20:31;6.40;;;2.83;;
55076;SDS011;40971;44.702;11.030;2022-08-03T08:22:59;5.70;;;2.20;;
55076;SDS011;40971;44.702;11.030;2022-08-03T08:25:26;5.32;;;1.88;;
55076;SDS011;40971;44.702;11.030;2022-08-03T08:27:52;4.30;;;1.67;;
55076;SDS011;40971;44.702;11.030;2022-08-03T08:30:18;8.32;;;2.30;;
55076;SDS011;40971;44.702;11.030;2022-08-03T08:32:45;4.57;;;1.50;;
55076;SDS011;40971;44.702;11.030;2022-08-03T08:35:12;16.30;;;2.03;;
55076;SDS011;40971;44.702;11.030;2022-08-03T08:37:38;4.88;;;1.45;;
55076;SDS011;40971;44.702;11.030;2022-08-03T08:40:04;14.27;;;2.20;;
55076;SDS011;40971;44.702;11.030;2022-08-03T08:42:31;11.32;;;1.83;;
55076;SDS011;40971;44.702;11.030;2022-08-03T08:44:58;6.45;;;1.70;;
55076;SDS011;40971;44.702;11.030;2022-08-03T08:47:24;4.18;;;1.65;;
55076;SDS011;40971;44.702;11.030;2022-08-03T08:49:53;3.95;;;1.40;;
55076;SDS011;40971;44.702;11.030;2022-08-03T08:52:23;8.00;;;1.70;;
55076;SDS011;40971;44.702;11.030;2022-08-03T08:54:51;5.32;;;1.60;;
55076;SDS011;40971;44.702;11.030;2022-08-03T08:57:30;3.42;;;1.20;;
55076;SDS011;40971;44.702;11.030;2022-08-03T08:59:58;5.55;;;1.40;;
55076;SDS011;40971;44.702;11.030;2022-08-03T09:02:28;5.53;;;1.13;;
55076;SDS011;40971;44.702;11.030;2022-08-03T09:04:54;4.75;;;1.40;;
55076;SDS011;40971;44.702;11.030;2022-08-03T09:07:20;4.30;;;1.13;;
55076;SDS011;40971;44.702;11.030;2022-08-03T09:09:46;5.47;;;1.85;;
55076;SDS011;40971;44.702;11.030;2022-08-03T09:12:12;4.15;;;1.38;;
55076;SDS011;40971;44.702;11.030;2022-08-03T09:14:37;4.18;;;1.30;;
55076;SDS011;40971;44.702;11.030;2022-08-03T09:17:03;3.83;;;1.40;;
55076;SDS011;40971;44.702;11.030;2022-08-03T09:19:29;4.93;;;1.25;;
55076;SDS011;40971;44.702;11.030;2022-08-03T09:22:10;4.18;;;1.30;;
55076;SDS011;40971;44.702;11.030;2022-08-03T09:24:37;4.10;;;1.15;;
55076;SDS011;40971;44.702;11.030;2022-08-03T09:27:18;5.88;;;1.08;;
55076;SDS011;40971;44.702;11.030;2022-08-03T09:29:48;9.13;;;1.38;;
55076;SDS011;40971;44.702;11.030;2022-08-03T09:32:14;4.78;;;1.40;;
55076;SDS011;40971;44.702;11.030;2022-08-03T09:34:45;3.67;;;1.45;;
55076;SDS011;40971;44.702;11.030;2022-08-03T09:37:12;7.68;;;1.50;;
55076;SDS011;40971;44.702;11.030;2022-08-03T09:39:39;8.50;;;1.25;;
55076;SDS011;40971;44.702;11.030;2022-08-03T09:42:06;6.25;;;1.20;;
55076;SDS011;40971;44.702;11.030;2022-08-03T09:44:36;3.35;;;1.00;;
55076;SDS011;40971;44.702;11.030;2022-08-03T09:47:13;3.75;;;1.45;;
55076;SDS011;40971;44.702;11.030;2022-08-03T09:49:41;6.75;;;1.40;;
55076;SDS011;40971;44.702;11.030;2022-08-03T09:52:20;6.75;;;1.50;;
55076;SDS011;40971;44.702;11.030;2022-08-03T09:54:53;6.80;;;1.50;;
55076;SDS011;40971;44.702;11.030;2022-08-03T09:57:20;3.65;;;1.20;;
55076;SDS011;40971;44.702;11.030;2022-08-03T09:59:46;3.33;;;1.02;;
55076;SDS011;40971;44.702;11.030;2022-08-03T10:02:25;2.97;;;1.15;;
55076;SDS011;40971;44.702;11.030;2022-08-03T10:04:52;3.50;;;1.15;;
55076;SDS011;40971;44.702;11.030;2022-08-03T10:07:19;5.72;;;1.20;;
55076;SDS011;40971;44.702;11.030;2022-08-03T10:09:52;3.85;;;1.10;;
55076;SDS011;40971;44.702;11.030;2022-08-03T10:12:18;3.70;;;1.20;;
55076;SDS011;40971;44.702;11.030;2022-08-03T10:14:45;4.72;;;1.40;;
55076;SDS011;40971;44.702;11.030;2022-08-03T10:17:11;3.92;;;1.20;;
55076;SDS011;40971;44.702;11.030;2022-08-03T10:19:37;3.67;;;1.10;;
55076;SDS011;40971;44.702;11.030;2022-08-03T10:22:09;3.75;;;1.20;;
55076;SDS011;40971;44.702;11.030;2022-08-03T10:24:38;4.13;;;1.40;;
55076;SDS011;40971;44.702;11.030;2022-08-03T10:27:06;3.10;;;1.27;;
55076;SDS011;40971;44.702;11.030;2022-08-03T10:29:36;2.97;;;0.90;;
55076;SDS011;40971;44.702;11.030;2022-08-03T10:32:03;7.43;;;1.42;;
55076;SDS011;40971;44.702;11.030;2022-08-03T10:34:32;5.93;;;1.30;;
55076;SDS011;40971;44.702;11.030;2022-08-03T10:37:03;3.28;;;1.08;;
55076;SDS011;40971;44.702;11.030;2022-08-03T10:39:34;6.75;;;1.20;;
55076;SDS011;40971;44.702;11.030;2022-08-03T10:42:00;8.23;;;1.05;;
55076;SDS011;40971;44.702;11.030;2022-08-03T10:44:29;3.60;;;1.00;;
55076;SDS011;40971;44.702;11.030;2022-08-03T10:47:01;5.15;;;1.20;;
55076;SDS011;40971;44.702;11.030;2022-08-03T10:49:28;2.72;;;1.05;;
55076;SDS011;40971;44.702;11.030;2022-08-03T10:51:54;2.90;;;0.90;;
55076;SDS011;40971;44.702;11.030;2022-08-03T11:00:13;3.33;;;1.10;;
55076;SDS011;40971;44.702;11.030;2022-08-03T11:05:38;4.45;;;1.30;;
55076;SDS011;40971;44.702;11.030;2022-08-03T11:08:21;4.97;;;1.00;;
55076;SDS011;40971;44.702;11.030;2022-08-03T11:10:47;4.90;;;1.23;;
55076;SDS011;40971;44.702;11.030;2022-08-03T11:13:16;5.28;;;1.15;;
55076;SDS011;40971;44.702;11.030;2022-08-03T11:15:44;5.13;;;1.10;;
55076;SDS011;40971;44.702;11.030;2022-08-03T11:18:12;7.53;;;1.50;;
55076;SDS011;40971;44.702;11.030;2022-08-03T11:20:43;4.50;;;1.30;;
55076;SDS011;40971;44.702;11.030;2022-08-03T11:24:04;3.53;;;1.15;;
55076;SDS011;40971;44.702;11.030;2022-08-03T11:28:42;6.18;;;1.00;;
55076;SDS011;40971;44.702;11.030;2022-08-03T11:39:46;3.78;;;0.98;;
55076;SDS011;40971;44.702;11.030;2022-08-03T11:44:51;3.20;;;1.00;;
55076;SDS011;40971;44.702;11.030;2022-08-03T11:47:21;3.75;;;1.10;;
55076;SDS011;40971;44.702;11.030;2022-08-03T11:49:49;4.18;;;1.40;;
55076;SDS011;40971;44.702;11.030;2022-08-03T11:52:15;4.85;;;1.30;;
55076;SDS011;40971;44.702;11.030;2022-08-03T11:54:41;4.47;;;1.20;;
55076;SDS011;40971;44.702;11.030;2022-08-03T11:57:08;2.78;;;1.02;;
55076;SDS011;40971;44.702;11.030;2022-08-03T11:59:34;12.30;;;1.58;;
55076;SDS011;40971;44.702;11.030;2022-08-03T12:02:05;4.03;;;1.10;;
55076;SDS011;40971;44.702;11.030;2022-08-03T12:04:31;3.45;;;1.10;;
55076;SDS011;40971;44.702;11.030;2022-08-03T12:07:13;2.63;;;1.05;;
55076;SDS011;40971;44.702;11.030;2022-08-03T12:09:38;6.47;;;1.10;;
55076;SDS011;40971;44.702;11.030;2022-08-03T12:12:05;7.40;;;1.15;;
55076;SDS011;40971;44.702;11.030;2022-08-03T12:14:31;3.67;;;1.13;;
55076;SDS011;40971;44.702;11.030;2022-08-03T12:16:57;5.97;;;1.20;;
55076;SDS011;40971;44.702;11.030;2022-08-03T12:19:22;4.60;;;1.20;;
55076;SDS011;40971;44.702;11.030;2022-08-03T12:21:48;4.22;;;1.25;;
55076;SDS011;40971;44.702;11.030;2022-08-03T12:24:14;6.07;;;1.10;;
55076;SDS011;40971;44.702;11.030;2022-08-03T12:26:47;2.58;;;1.05;;
55076;SDS011;40971;44.702;11.030;2022-08-03T12:29:17;4.50;;;1.10;;
55076;SDS011;40971;44.702;11.030;2022-08-03T12:31:44;3.55;;;0.98;;
55076;SDS011;40971;44.702;11.030;2022-08-03T12:34:09;3.75;;;1.20;;
55076;SDS011;40971;44.702;11.030;2022-08-03T12:36:35;4.50;;;1.05;;
55076;SDS011;40971;44.702;11.030;2022-08-03T12:39:05;3.50;;;0.90;;
55076;SDS011;40971;44.702;11.030;2022-08-03T12:41:35;3.10;;;1.30;;
55076;SDS011;40971;44.702;11.030;2022-08-03T12:44:02;3.65;;;1.10;;
55076;SDS011;40971;44.702;11.030;2022-08-03T12:46:30;7.13;;;1.20;;
55076;SDS011;40971;44.702;11.030;2022-08-03T12:51:28;4.70;;;0.90;;
55076;SDS011;40971;44.702;11.030;2022-08-03T12:53:55;3.10;;;1.10;;
55076;SDS011;40971;44.702;11.030;2022-08-03T12:56:21;2.95;;;0.90;;
55076;SDS011;40971;44.702;11.030;2022-08-03T12:58:47;2.88;;;0.90;;
55076;SDS011;40971;44.702;11.030;2022-08-03T13:01:14;4.35;;;0.95;;
55076;SDS011;40971;44.702;11.030;2022-08-03T13:03:47;4.03;;;1.00;;
55076;SDS011;40971;44.702;11.030;2022-08-03T13:06:14;2.95;;;1.10;;
55076;SDS011;40971;44.702;11.030;2022-08-03T13:08:41;4.07;;;1.23;;
55076;SDS011;40971;44.702;11.030;2022-08-03T13:11:20;3.90;;;1.00;;
55076;SDS011;40971;44.702;11.030;2022-08-03T13:13:48;4.38;;;1.00;;
55076;SDS011;40971;44.702;11.030;2022-08-03T13:16:14;2.40;;;0.77;;
55076;SDS011;40971;44.702;11.030;2022-08-03T13:18:39;2.30;;;0.82;;
55076;SDS011;40971;44.702;11.030;2022-08-03T13:21:05;3.35;;;0.95;;
55076;SDS011;40971;44.702;11.030;2022-08-03T13:23:30;2.92;;;0.93;;
55076;SDS011;40971;44.702;11.030;2022-08-03T13:25:56;3.72;;;1.00;;
55076;SDS011;40971;44.702;11.030;2022-08-03T13:28:22;3.88;;;1.20;;
55076;SDS011;40971;44.702;11.030;2022-08-03T13:30:47;3.45;;;0.90;;
55076;SDS011;40971;44.702;11.030;2022-08-03T13:33:13;4.20;;;1.05;;
55076;SDS011;40971;44.702;11.030;2022-08-03T13:35:38;4.13;;;2.08;;
55076;SDS011;40971;44.702;11.030;2022-08-03T13:38:03;2.17;;;0.80;;
55076;SDS011;40971;44.702;11.030;2022-08-03T13:40:29;4.30;;;1.00;;
55076;SDS011;40971;44.702;11.030;2022-08-03T13:42:56;2.88;;;0.88;;
55076;SDS011;40971;44.702;11.030;2022-08-03T13:45:22;3.20;;;1.00;;
55076;SDS011;40971;44.702;11.030;2022-08-03T13:47:48;3.10;;;1.00;;
55076;SDS011;40971;44.702;11.030;2022-08-03T13:50:14;4.68;;;1.38;;
55076;SDS011;40971;44.702;11.030;2022-08-03T13:52:39;2.00;;;0.80;;
55076;SDS011;40971;44.702;11.030;2022-08-03T13:55:05;5.72;;;1.05;;
55076;SDS011;40971;44.702;11.030;2022-08-03T13:57:31;4.75;;;1.00;;
55076;SDS011;40971;44.702;11.030;2022-08-03T13:59:57;3.53;;;1.20;;
55076;SDS011;40971;44.702;11.030;2022-08-03T14:02:23;3.25;;;1.02;;
55076;SDS011;40971;44.702;11.030;2022-08-03T14:04:48;2.33;;;0.85;;
55076;SDS011;40971;44.702;11.030;2022-08-03T14:07:14;5.05;;;2.53;;
55076;SDS011;40971;44.702;11.030;2022-08-03T14:09:40;4.05;;;0.90;;
55076;SDS011;40971;44.702;11.030;2022-08-03T14:12:05;3.30;;;1.00;;
55076;SDS011;40971;44.702;11.030;2022-08-03T14:14:32;3.78;;;0.90;;
55076;SDS011;40971;44.702;11.030;2022-08-03T14:16:57;5.35;;;0.93;;
55076;SDS011;40971;44.702;11.030;2022-08-03T14:19:22;3.97;;;0.93;;
55076;SDS011;40971;44.702;11.030;2022-08-03T14:21:48;3.65;;;0.90;;
55076;SDS011;40971;44.702;11.030;2022-08-03T14:24:13;3.08;;;1.10;;
55076;SDS011;40971;44.702;11.030;2022-08-03T14:26:39;4.13;;;0.88;;
55076;SDS011;40971;44.702;11.030;2022-08-03T14:29:04;2.33;;;0.73;;
55076;SDS011;40971;44.702;11.030;2022-08-03T14:31:30;2.75;;;0.95;;
55076;SDS011;40971;44.702;11.030;2022-08-03T14:33:56;2.95;;;1.02;;
55076;SDS011;40971;44.702;11.030;2022-08-03T14:36:21;3.45;;;0.98;;
55076;SDS011;40971;44.702;11.030;2022-08-03T14:38:47;5.32;;;1.10;;
55076;SDS011;40971;44.702;11.030;2022-08-03T14:41:12;2.80;;;0.93;;
55076;SDS011;40971;44.702;11.030;2022-08-03T14:43:38;2.42;;;1.00;;
55076;SDS011;40971;44.702;11.030;2022-08-03T14:46:03;6.00;;;1.17;;
55076;SDS011;40971;44.702;11.030;2022-08-03T14:48:28;2.72;;;0.82;;
55076;SDS011;40971;44.702;11.030;2022-08-03T14:50:54;2.08;;;0.85;;
55076;SDS011;40971;44.702;11.030;2022-08-03T14:53:20;3.35;;;1.00;;
55076;SDS011;40971;44.702;11.030;2022-08-03T14:55:46;2.40;;;0.80;;
55076;SDS011;40971;44.702;11.030;2022-08-03T14:58:13;3.00;;;0.80;;
55076;SDS011;40971;44.702;11.030;2022-08-03T15:00:42;4.10;;;1.20;;
55076;SDS011;40971;44.702;11.030;2022-08-03T15:03:07;4.35;;;1.13;;
55076;SDS011;40971;44.702;11.030;2022-08-03T15:05:33;4.70;;;1.05;;